Aeroporto :
LOGIN :

Iscrizione | Disclaimer

   EN    FR    IT 

 










Sommario :    VFR   VFR Marginale   IFR   IFR Intensivo   IFR Molto Intensivo
Visibilità : 
Base nubi : 
>= 8 km
>= 3000ft
5 / 8 km
1000 / 3000 ft
1500m / 5 km
500 / 1000 ft
800 / 1500m
200 / 500 ft
< 800m
< 200 ft
Simboli :   Temporali  Nebbia  Neve Forte  Precipitazioni Forti  Vento > 20 kt
SIGMETs :   Varie  Temporali  Ghiacco  Turbolenza  Onda orograficha  Ceneri Vulcaniche






- Altitudine del aeroporto : 1276 ft
- Codice IATA : STR


EDDS - Stuttgart

ULTIMO METAR :
  • 221650Z 24012KT 210V270 CAVOK 12/M07 Q1025 NOSIG

METARs OBSOLETI :
  • 221620Z 26011KT CAVOK 13/M06 Q1025 NOSIG
  • 221550Z 24009KT CAVOK 13/M06 Q1024 NOSIG
  • 221520Z 23008KT 170V270 CAVOK 14/M04 Q1024 NOSIG
  • 221450Z 22005KT 180V250 CAVOK 14/M03 Q1025 NOSIG
  • 221420Z 24007KT 200V270 CAVOK 14/M03 Q1025 NOSIG

TAF TAF EDDS
Valido dal 22 a 12 ore il 23 a 12 ore UTC


221100Z 2212/2312 23010KT CAVOK
TEMPO 2221/2309 RA
BECMG 2306/2309 23015G25KT
PROB30
TEMPO 2307/2312 23020G35KT



MetMap, La meteo Aeronautica in un colpo d'occhio ! - Copyright ORBIFLY Dicembre 2007 - Disclaimer

ORBIFLY MET'MAP TEAM :

Programmazione e sviluppo : Alexandra Zaïnal
Concezione : Baudouin d'Aumeries
Aiuto per la programmazione : Marc-Olivier Méhu
Supporto tecnico e logistico : Manuel Goepfert
Aiuto per la traduzione : Arnaldo La Scala

Contatto : metmap@orbifly.com




FONTI E CREDITI :

   NOAA